Time;durP1;ratioP1;P1;durP2;ratioP2;P2;SDS_P1;SDS_P2;PMS_P1;PMS_P2;Temp;Humidity;BMP_temperature;BMP_pressure;BME280_temperature;BME280_humidity;BME280_pressure;Samples;Min_cycle;Max_cycle;Signal;HPM_P1;HPM_P2
2022/01/05 00:02:00;;;;;;;0.97;0.97;;;;;;;;;;4987027;28;20218;-61
2022/01/05 00:04:27;;;;;;;1.00;1.00;;;;;;;;;;4985985;28;20272;-61
2022/01/05 00:06:56;;;;;;;1.13;1.13;;;;;;;;;;4986244;28;20214;-61
2022/01/05 00:09:23;;;;;;;1.73;1.00;;;;;;;;;;4985855;28;20221;-62
2022/01/05 00:11:50;;;;;;;1.03;1.03;;;;;;;;;;4985341;28;20759;-60
2022/01/05 00:14:17;;;;;;;1.00;1.00;;;;;;;;;;4985258;28;20244;-60
2022/01/05 00:16:44;;;;;;;0.90;0.90;;;;;;;;;;4990100;28;20216;-60
2022/01/05 00:19:11;;;;;;;1.03;1.00;;;;;;;;;;4986609;28;20206;-60
2022/01/05 00:21:40;;;;;;;2.07;1.07;;;;;;;;;;4985518;28;20691;-61
2022/01/05 00:24:08;;;;;;;0.50;0.50;;;;;;;;;;4985182;28;20224;-60
2022/01/05 00:26:36;;;;;;;0.90;0.80;;;;;;;;;;4986129;28;20715;-61
2022/01/05 00:29:03;;;;;;;1.37;0.97;;;;;;;;;;4984372;28;20230;-61
2022/01/05 00:31:30;;;;;;;1.00;0.90;;;;;;;;;;4985784;28;20505;-60
2022/01/05 00:33:57;;;;;;;0.80;0.73;;;;;;;;;;4985104;28;20216;-61
2022/01/05 00:36:24;;;;;;;0.80;0.80;;;;;;;;;;4985854;28;20237;-61
2022/01/05 00:38:51;;;;;;;0.73;0.73;;;;;;;;;;4987027;28;20272;-61
2022/01/05 00:41:19;;;;;;;2.10;0.70;;;;;;;;;;4984027;28;20229;-61
2022/01/05 00:43:46;;;;;;;1.30;1.20;;;;;;;;;;4984621;28;20213;-61
2022/01/05 00:46:13;;;;;;;0.60;0.60;;;;;;;;;;4985663;28;20541;-61
2022/01/05 00:48:40;;;;;;;0.70;0.70;;;;;;;;;;4984820;28;20221;-61
2022/01/05 00:51:08;;;;;;;1.10;1.07;;;;;;;;;;4983965;28;21525;-60
2022/01/05 00:53:35;;;;;;;0.77;0.77;;;;;;;;;;4985134;28;20210;-61
2022/01/05 00:56:02;;;;;;;1.17;1.07;;;;;;;;;;4984083;28;20217;-61
2022/01/05 00:58:31;;;;;;;1.73;1.27;;;;;;;;;;4985883;28;20230;-61
2022/01/05 01:00:58;;;;;;;1.27;1.20;;;;;;;;;;4984368;28;20240;-61
2022/01/05 01:03:26;;;;;;;0.87;0.87;;;;;;;;;;4984641;28;20260;-61
2022/01/05 01:05:54;;;;;;;1.33;1.30;;;;;;;;;;4983596;28;20218;-60
2022/01/05 01:08:21;;;;;;;2.20;1.23;;;;;;;;;;4985212;28;20567;-60
2022/01/05 01:10:49;;;;;;;1.20;1.10;;;;;;;;;;4984480;28;20291;-60
2022/01/05 01:13:17;;;;;;;1.63;1.17;;;;;;;;;;4983383;28;20313;-61
2022/01/05 01:15:46;;;;;;;3.27;1.57;;;;;;;;;;4984961;28;20312;-61
2022/01/05 01:18:13;;;;;;;2.77;1.20;;;;;;;;;;4985808;28;20220;-61
2022/01/05 01:20:40;;;;;;;1.57;1.47;;;;;;;;;;4984383;28;20241;-60
2022/01/05 01:23:08;;;;;;;1.17;1.17;;;;;;;;;;4983562;28;20667;-61
2022/01/05 01:25:35;;;;;;;1.50;1.50;;;;;;;;;;4985806;28;20777;-61
2022/01/05 01:28:02;;;;;;;2.47;1.70;;;;;;;;;;4983838;28;20221;-61
2022/01/05 01:30:31;;;;;;;2.83;1.67;;;;;;;;;;4987304;28;20260;-61
2022/01/05 01:33:00;;;;;;;1.20;1.20;;;;;;;;;;4986856;28;20219;-61
2022/01/05 01:35:27;;;;;;;1.20;1.20;;;;;;;;;;4984219;28;20271;-61
2022/01/05 01:37:55;;;;;;;1.33;1.23;;;;;;;;;;5005513;28;20209;-61
2022/01/05 01:40:22;;;;;;;1.37;1.30;;;;;;;;;;5007153;28;20285;-61
2022/01/05 01:42:49;;;;;;;1.17;1.07;;;;;;;;;;5003415;28;20201;-61
2022/01/05 01:45:16;;;;;;;1.17;1.10;;;;;;;;;;5006820;28;20218;-61
2022/01/05 01:47:45;;;;;;;0.80;0.80;;;;;;;;;;5006431;28;20205;-61
2022/01/05 01:50:14;;;;;;;0.70;0.70;;;;;;;;;;5006993;28;20279;-61
2022/01/05 01:52:41;;;;;;;0.77;0.77;;;;;;;;;;5006610;28;20241;-61
2022/01/05 01:55:10;;;;;;;0.30;0.30;;;;;;;;;;5007240;28;20221;-60
2022/01/05 01:57:39;;;;;;;0.30;0.30;;;;;;;;;;5005565;28;20205;-60
2022/01/05 02:00:08;;;;;;;0.37;0.37;;;;;;;;;;5006986;28;20217;-61
2022/01/05 02:02:35;;;;;;;0.50;0.50;;;;;;;;;;5006179;28;20212;-61
2022/01/05 02:05:03;;;;;;;0.30;0.30;;;;;;;;;;5006447;28;20263;-61
2022/01/05 02:07:31;;;;;;;0.40;0.30;;;;;;;;;;5005480;28;20205;-61
2022/01/05 02:09:58;;;;;;;0.27;0.27;;;;;;;;;;5006139;28;20213;-61
2022/01/05 02:12:27;;;;;;;0.30;0.30;;;;;;;;;;5005741;28;20232;-61
2022/01/05 02:14:54;;;;;;;0.10;0.10;;;;;;;;;;5004124;28;20209;-61
2022/01/05 02:17:29;;;;;;;0.20;0.20;;;;;;;;;;5005454;28;20279;-61
2022/01/05 02:19:56;;;;;;;2.83;0.17;;;;;;;;;;5003751;28;20754;-60
2022/01/05 02:22:24;;;;;;;0.20;0.20;;;;;;;;;;5004066;28;20216;-60
2022/01/05 02:24:51;;;;;;;0.20;0.20;;;;;;;;;;5005829;28;20263;-60
2022/01/05 02:27:19;;;;;;;0.13;0.13;;;;;;;;;;5005542;28;20209;-61
2022/01/05 02:29:46;;;;;;;0.10;0.10;;;;;;;;;;4998876;28;20208;-61
2022/01/05 02:32:13;;;;;;;0.17;0.17;;;;;;;;;;5005300;28;20643;-61
2022/01/05 02:34:40;;;;;;;0.10;0.10;;;;;;;;;;5005849;28;20205;-60
2022/01/05 02:37:07;;;;;;;0.30;0.27;;;;;;;;;;5006278;28;20775;-60
2022/01/05 02:39:35;;;;;;;0.37;0.37;;;;;;;;;;4999992;28;20272;-60
2022/01/05 02:42:02;;;;;;;0.10;0.10;;;;;;;;;;5001970;28;20206;-61
2022/01/05 02:44:29;;;;;;;0.70;0.23;;;;;;;;;;4990759;28;20208;-61
2022/01/05 02:46:56;;;;;;;0.13;0.13;;;;;;;;;;5003126;28;20213;-61
2022/01/05 02:49:23;;;;;;;0.10;0.10;;;;;;;;;;5003020;28;20263;-61
2022/01/05 02:51:51;;;;;;;0.50;0.20;;;;;;;;;;5005762;28;20244;-61
2022/01/05 02:54:18;;;;;;;0.30;0.30;;;;;;;;;;4989394;28;20594;-61
2022/01/05 02:56:46;;;;;;;0.70;0.20;;;;;;;;;;5004238;28;20215;-60
2022/01/05 02:59:13;;;;;;;0.20;0.20;;;;;;;;;;5002747;28;20280;-60
2022/01/05 03:01:40;;;;;;;0.33;0.10;;;;;;;;;;5005477;28;20216;-60
2022/01/05 03:04:07;;;;;;;0.17;0.17;;;;;;;;;;4994032;28;20651;-60
2022/01/05 03:06:34;;;;;;;0.83;0.10;;;;;;;;;;5004795;28;20208;-61
2022/01/05 03:09:01;;;;;;;0.20;0.20;;;;;;;;;;5001943;28;20291;-60
2022/01/05 03:11:28;;;;;;;0.20;0.20;;;;;;;;;;5005343;28;20226;-61
2022/01/05 03:13:57;;;;;;;0.10;0.10;;;;;;;;;;5004620;28;20209;-61
2022/01/05 03:16:24;;;;;;;0.10;0.10;;;;;;;;;;4997956;28;20675;-61
2022/01/05 03:18:51;;;;;;;0.10;0.10;;;;;;;;;;4986213;28;20223;-61
2022/01/05 03:21:18;;;;;;;0.23;0.23;;;;;;;;;;5005337;28;20372;-60
2022/01/05 03:23:46;;;;;;;0.30;0.30;;;;;;;;;;5000775;28;20260;-61
2022/01/05 03:26:13;;;;;;;0.40;0.20;;;;;;;;;;4991649;28;20208;-61
2022/01/05 03:28:40;;;;;;;1.03;0.30;;;;;;;;;;5004948;28;20323;-61
2022/01/05 03:31:09;;;;;;;0.10;0.10;;;;;;;;;;5008882;28;20235;-61
2022/01/05 03:33:36;;;;;;;0.30;0.30;;;;;;;;;;5004402;28;20257;-61
2022/01/05 03:36:03;;;;;;;0.30;0.30;;;;;;;;;;5008650;28;20668;-61
2022/01/05 03:38:30;;;;;;;0.97;0.37;;;;;;;;;;5009113;28;20218;-61
2022/01/05 03:40:57;;;;;;;0.20;0.20;;;;;;;;;;4999277;28;20665;-61
2022/01/05 03:43:24;;;;;;;0.50;0.20;;;;;;;;;;5008432;28;20223;-60
2022/01/05 03:45:51;;;;;;;0.00;0.00;;;;;;;;;;5009489;28;20214;-61
2022/01/05 03:48:21;;;;;;;0.17;0.17;;;;;;;;;;4991440;28;20312;-61
2022/01/05 03:50:48;;;;;;;1.70;0.20;;;;;;;;;;4989506;28;20248;-61
2022/01/05 03:53:16;;;;;;;0.10;0.10;;;;;;;;;;5007685;28;20802;-61
2022/01/05 03:55:44;;;;;;;0.00;0.00;;;;;;;;;;5009199;28;20213;-61
2022/01/05 03:58:11;;;;;;;0.00;0.00;;;;;;;;;;5004739;28;20637;-61
2022/01/05 04:00:40;;;;;;;0.00;0.00;;;;;;;;;;5001591;28;20201;-61
2022/01/05 04:03:07;;;;;;;0.30;0.30;;;;;;;;;;5008391;28;20209;-61
2022/01/05 04:05:36;;;;;;;1.60;0.20;;;;;;;;;;5008918;28;20221;-61
2022/01/05 04:08:03;;;;;;;0.10;0.10;;;;;;;;;;5008573;28;20581;-61
2022/01/05 04:10:30;;;;;;;0.10;0.10;;;;;;;;;;5008970;28;20233;-61
2022/01/05 04:12:57;;;;;;;1.27;0.20;;;;;;;;;;5008482;28;20743;-60
2022/01/05 04:15:24;;;;;;;1.13;0.20;;;;;;;;;;5008686;28;20221;-60
2022/01/05 04:17:51;;;;;;;0.20;0.20;;;;;;;;;;4992961;28;20280;-61
2022/01/05 04:20:19;;;;;;;0.10;0.10;;;;;;;;;;4985541;28;20217;-59
2022/01/05 04:22:47;;;;;;;0.07;0.07;;;;;;;;;;5004998;28;20569;-60
2022/01/05 04:25:15;;;;;;;0.83;0.20;;;;;;;;;;5006497;28;20216;-59
2022/01/05 04:27:42;;;;;;;1.33;0.50;;;;;;;;;;5006241;28;20217;-59
2022/01/05 04:30:10;;;;;;;0.10;0.10;;;;;;;;;;5008497;28;20224;-60
2022/01/05 04:32:37;;;;;;;2.63;0.40;;;;;;;;;;4996068;28;20262;-59
2022/01/05 04:35:05;;;;;;;0.10;0.10;;;;;;;;;;5002994;28;20274;-59
2022/01/05 04:37:32;;;;;;;1.30;0.20;;;;;;;;;;4995880;28;20209;-59
2022/01/05 04:40:00;;;;;;;0.50;0.40;;;;;;;;;;4995215;28;20302;-59
2022/01/05 04:42:27;;;;;;;0.77;0.30;;;;;;;;;;4989383;28;20210;-60
2022/01/05 04:44:54;;;;;;;0.57;0.30;;;;;;;;;;5007442;28;20567;-59
2022/01/05 04:47:22;;;;;;;2.97;0.20;;;;;;;;;;5007874;28;20267;-59
2022/01/05 04:49:49;;;;;;;0.20;0.20;;;;;;;;;;4988858;28;20245;-59
2022/01/05 04:52:16;;;;;;;0.40;0.20;;;;;;;;;;4991508;28;20240;-59
2022/01/05 04:54:43;;;;;;;0.63;0.33;;;;;;;;;;4989629;28;20206;-59
2022/01/05 04:57:12;;;;;;;3.30;0.33;;;;;;;;;;5003879;28;20221;-59
2022/01/05 04:59:39;;;;;;;0.87;0.30;;;;;;;;;;5009234;28;20293;-59
2022/01/05 05:02:06;;;;;;;2.00;0.20;;;;;;;;;;5007988;28;20208;-59
2022/01/05 05:04:33;;;;;;;2.27;0.50;;;;;;;;;;4998135;28;20668;-59
2022/01/05 05:07:00;;;;;;;0.63;0.50;;;;;;;;;;5003499;28;20207;-59
2022/01/05 05:09:27;;;;;;;0.40;0.40;;;;;;;;;;4992142;28;20206;-59
2022/01/05 05:11:54;;;;;;;0.30;0.30;;;;;;;;;;5006481;28;20235;-59
2022/01/05 05:14:22;;;;;;;0.50;0.50;;;;;;;;;;5004007;28;20228;-59
2022/01/05 05:16:49;;;;;;;0.53;0.53;;;;;;;;;;4999649;28;20763;-59
2022/01/05 05:19:16;;;;;;;1.17;0.43;;;;;;;;;;5007303;28;20622;-59
2022/01/05 05:21:43;;;;;;;0.63;0.63;;;;;;;;;;5007538;28;20264;-59
2022/01/05 05:24:13;;;;;;;0.97;0.50;;;;;;;;;;5007425;28;20279;-59
2022/01/05 05:26:40;;;;;;;0.67;0.40;;;;;;;;;;5006774;28;20213;-59
2022/01/05 05:29:07;;;;;;;9.37;0.87;;;;;;;;;;5000409;28;20268;-59
2022/01/05 05:31:36;;;;;;;2.43;0.60;;;;;;;;;;5007091;28;20785;-59
2022/01/05 05:34:03;;;;;;;0.50;0.50;;;;;;;;;;5002905;28;20268;-58
2022/01/05 05:36:30;;;;;;;0.93;0.27;;;;;;;;;;5007309;28;20678;-59
2022/01/05 05:38:57;;;;;;;2.87;0.60;;;;;;;;;;5000246;28;20209;-59
2022/01/05 05:41:24;;;;;;;0.30;0.30;;;;;;;;;;5005295;28;20706;-59
2022/01/05 05:43:51;;;;;;;0.33;0.30;;;;;;;;;;5007059;28;20228;-59
2022/01/05 05:46:19;;;;;;;0.10;0.10;;;;;;;;;;5000392;28;20267;-59
2022/01/05 05:48:47;;;;;;;0.77;0.27;;;;;;;;;;4999175;28;20213;-59
2022/01/05 05:51:14;;;;;;;2.00;0.30;;;;;;;;;;5006352;28;20251;-59
2022/01/05 05:53:41;;;;;;;2.97;0.40;;;;;;;;;;5005424;28;20300;-60
2022/01/05 05:56:08;;;;;;;1.93;0.30;;;;;;;;;;5006751;28;20869;-59
2022/01/05 05:58:35;;;;;;;1.60;0.50;;;;;;;;;;4997686;28;20977;-59
2022/01/05 06:01:02;;;;;;;2.20;0.60;;;;;;;;;;5003224;28;20271;-60
2022/01/05 06:03:29;;;;;;;0.17;0.17;;;;;;;;;;5006957;28;20206;-58
2022/01/05 06:05:57;;;;;;;0.30;0.30;;;;;;;;;;5006002;28;20219;-58
2022/01/05 06:08:24;;;;;;;0.20;0.20;;;;;;;;;;5005604;28;20208;-59
2022/01/05 06:10:51;;;;;;;3.83;0.33;;;;;;;;;;4993880;28;20209;-59
2022/01/05 06:13:50;;;;;;;0.40;0.40;;;;;;;;;;4995877;28;20283;-59
2022/01/05 06:16:17;;;;;;;1.93;0.20;;;;;;;;;;4999481;28;20225;-59
2022/01/05 06:18:44;;;;;;;0.40;0.33;;;;;;;;;;4991124;28;20240;-59
2022/01/05 06:21:12;;;;;;;0.30;0.30;;;;;;;;;;5003250;28;20271;-59
2022/01/05 06:23:39;;;;;;;7.00;0.30;;;;;;;;;;5005484;28;20353;-59
2022/01/05 06:26:06;;;;;;;0.30;0.30;;;;;;;;;;5003161;28;20220;-59
2022/01/05 06:28:33;;;;;;;0.40;0.40;;;;;;;;;;5002180;28;20761;-59
2022/01/05 06:31:00;;;;;;;4.13;0.70;;;;;;;;;;5001289;28;20206;-59
2022/01/05 06:33:27;;;;;;;0.20;0.20;;;;;;;;;;4996581;28;20302;-59
2022/01/05 06:35:54;;;;;;;0.23;0.23;;;;;;;;;;5005191;28;20687;-59
2022/01/05 06:38:23;;;;;;;0.47;0.40;;;;;;;;;;5000115;28;20210;-59
2022/01/05 06:40:50;;;;;;;0.30;0.30;;;;;;;;;;4995048;28;20213;-59
2022/01/05 06:43:17;;;;;;;2.33;0.57;;;;;;;;;;5003327;28;20287;-59
2022/01/05 06:45:44;;;;;;;0.20;0.20;;;;;;;;;;5002641;28;20202;-59
2022/01/05 06:48:11;;;;;;;0.47;0.30;;;;;;;;;;5003365;28;20210;-59
2022/01/05 06:50:38;;;;;;;1.00;0.30;;;;;;;;;;5005353;28;20868;-59
2022/01/05 06:53:05;;;;;;;2.00;0.50;;;;;;;;;;5001399;28;20241;-59
2022/01/05 06:55:33;;;;;;;0.47;0.40;;;;;;;;;;4995188;28;20205;-59
2022/01/05 06:58:00;;;;;;;1.13;0.50;;;;;;;;;;5005490;28;20209;-59
2022/01/05 07:00:28;;;;;;;1.03;0.50;;;;;;;;;;5000916;28;20212;-59
2022/01/05 07:02:55;;;;;;;2.77;0.37;;;;;;;;;;5001874;28;20221;-59
2022/01/05 07:05:22;;;;;;;0.30;0.30;;;;;;;;;;4998152;28;20205;-61
2022/01/05 07:07:49;;;;;;;0.20;0.20;;;;;;;;;;5009923;28;20209;-59
2022/01/05 07:10:17;;;;;;;0.20;0.20;;;;;;;;;;5009633;28;20205;-61
2022/01/05 07:12:45;;;;;;;1.47;0.23;;;;;;;;;;5009957;28;20236;-59
2022/01/05 07:15:12;;;;;;;1.50;0.47;;;;;;;;;;5009851;28;20208;-59
2022/01/05 07:17:39;;;;;;;0.77;0.30;;;;;;;;;;5009688;28;20219;-59
2022/01/05 07:20:07;;;;;;;0.20;0.20;;;;;;;;;;5000417;28;20280;-59
2022/01/05 07:22:34;;;;;;;2.40;0.37;;;;;;;;;;5008459;28;20221;-58
2022/01/05 07:25:01;;;;;;;1.50;0.23;;;;;;;;;;5009609;28;20243;-59
2022/01/05 07:27:28;;;;;;;0.20;0.20;;;;;;;;;;5009977;28;20219;-59
2022/01/05 07:29:57;;;;;;;0.37;0.37;;;;;;;;;;5009734;28;20204;-59
2022/01/05 07:32:24;;;;;;;2.93;0.40;;;;;;;;;;5009409;28;20232;-59
2022/01/05 07:34:51;;;;;;;0.20;0.20;;;;;;;;;;5009768;28;20450;-60
2022/01/05 07:37:18;;;;;;;0.43;0.43;;;;;;;;;;5009263;28;20664;-60
2022/01/05 07:39:45;;;;;;;0.63;0.40;;;;;;;;;;5009820;28;20216;-60
2022/01/05 07:42:12;;;;;;;0.57;0.47;;;;;;;;;;5009402;28;20216;-60
2022/01/05 07:44:39;;;;;;;2.67;0.40;;;;;;;;;;5009847;28;20205;-59
2022/01/05 07:47:08;;;;;;;0.50;0.50;;;;;;;;;;5009645;28;20213;-59
2022/01/05 07:49:37;;;;;;;1.00;0.47;;;;;;;;;;5009844;28;20240;-58
2022/01/05 07:52:04;;;;;;;5.73;0.60;;;;;;;;;;5009285;28;20331;-59
2022/01/05 07:54:32;;;;;;;0.87;0.60;;;;;;;;;;5009548;28;20221;-59
2022/01/05 07:56:59;;;;;;;0.83;0.57;;;;;;;;;;5009429;28;20219;-58
2022/01/05 07:59:26;;;;;;;1.60;0.57;;;;;;;;;;5009542;28;20699;-58
2022/01/05 08:01:53;;;;;;;0.43;0.40;;;;;;;;;;5001187;28;20214;-59
2022/01/05 08:04:22;;;;;;;0.10;0.10;;;;;;;;;;4991065;28;20240;-59
2022/01/05 08:06:49;;;;;;;0.27;0.27;;;;;;;;;;5006590;28;20440;-58
2022/01/05 08:09:16;;;;;;;0.30;0.20;;;;;;;;;;5009416;28;20271;-59
2022/01/05 08:11:43;;;;;;;0.73;0.30;;;;;;;;;;5008547;28;20213;-59
2022/01/05 08:14:10;;;;;;;0.37;0.37;;;;;;;;;;5009260;28;20232;-59
2022/01/05 08:16:37;;;;;;;1.57;0.50;;;;;;;;;;5009743;28;20209;-59
2022/01/05 08:19:04;;;;;;;0.30;0.30;;;;;;;;;;5012985;28;20239;-59
2022/01/05 08:21:33;;;;;;;3.10;0.50;;;;;;;;;;5009956;28;20213;-59
2022/01/05 08:24:00;;;;;;;1.80;0.60;;;;;;;;;;5007250;28;20774;-59
2022/01/05 08:26:27;;;;;;;2.23;0.40;;;;;;;;;;5007823;28;20210;-59
2022/01/05 08:28:55;;;;;;;0.73;0.63;;;;;;;;;;5005421;28;20212;-60
2022/01/05 08:31:22;;;;;;;0.90;0.60;;;;;;;;;;5011211;28;20209;-59
2022/01/05 08:33:49;;;;;;;0.67;0.50;;;;;;;;;;5012320;28;20302;-61
2022/01/05 08:36:17;;;;;;;0.57;0.57;;;;;;;;;;4998829;28;20293;-59
2022/01/05 08:38:45;;;;;;;0.40;0.40;;;;;;;;;;5004439;28;20204;-60
2022/01/05 08:41:12;;;;;;;0.57;0.57;;;;;;;;;;5012346;28;20205;-59
2022/01/05 08:43:39;;;;;;;0.50;0.50;;;;;;;;;;5011831;28;20212;-59
2022/01/05 08:46:06;;;;;;;2.17;0.63;;;;;;;;;;5012660;28;20224;-60
2022/01/05 08:48:33;;;;;;;0.40;0.40;;;;;;;;;;5005476;28;20205;-61
2022/01/05 08:51:00;;;;;;;0.77;0.57;;;;;;;;;;5011799;28;20229;-61
2022/01/05 08:53:27;;;;;;;0.30;0.30;;;;;;;;;;5000718;28;20704;-61
2022/01/05 08:55:56;;;;;;;0.30;0.30;;;;;;;;;;4997396;28;20208;-58
2022/01/05 08:58:23;;;;;;;1.73;0.47;;;;;;;;;;4999397;28;20209;-59
2022/01/05 09:00:50;;;;;;;0.60;0.40;;;;;;;;;;4994738;28;20416;-62
2022/01/05 09:03:18;;;;;;;0.40;0.40;;;;;;;;;;5010836;28;20206;-63
2022/01/05 09:05:45;;;;;;;2.77;0.20;;;;;;;;;;5010885;28;21735;-61
2022/01/05 09:08:12;;;;;;;4.90;0.30;;;;;;;;;;5002855;28;20214;-61
2022/01/05 09:10:40;;;;;;;0.40;0.40;;;;;;;;;;4993810;28;20220;-61
2022/01/05 09:13:10;;;;;;;0.60;0.60;;;;;;;;;;5001804;28;20231;-60
2022/01/05 09:15:38;;;;;;;1.70;0.40;;;;;;;;;;4999692;28;20205;-60
2022/01/05 09:18:05;;;;;;;0.40;0.40;;;;;;;;;;5009555;28;20209;-60
2022/01/05 09:20:32;;;;;;;0.37;0.37;;;;;;;;;;4999979;28;20279;-61
2022/01/05 09:23:00;;;;;;;0.30;0.23;;;;;;;;;;5003798;28;20260;-60
2022/01/05 09:25:27;;;;;;;0.20;0.20;;;;;;;;;;4992582;28;20241;-60
2022/01/05 09:27:54;;;;;;;0.93;0.40;;;;;;;;;;5010428;28;20631;-61
2022/01/05 09:30:23;;;;;;;0.50;0.50;;;;;;;;;;5010394;28;20240;-60
2022/01/05 09:32:50;;;;;;;0.23;0.23;;;;;;;;;;5006352;28;20294;-60
2022/01/05 09:35:20;;;;;;;1.63;0.43;;;;;;;;;;5010342;28;20212;-60
2022/01/05 09:38:06;;;;;;;5.87;0.23;;;;;;;;;;5010224;28;20205;-61
2022/01/05 09:43:18;;;;;;;0.43;0.43;;;;;;;;;;5005726;28;20204;-60
2022/01/05 09:49:04;;;;;;;2.00;0.50;;;;;;;;;;4921560;29;20206;-60
2022/01/05 09:51:32;;;;;;;1.43;0.50;;;;;;;;;;4997152;28;20251;-61
2022/01/05 09:54:01;;;;;;;2.23;0.57;;;;;;;;;;5009439;28;20232;-60
2022/01/05 09:56:30;;;;;;;8.27;1.00;;;;;;;;;;5010146;28;20242;-60
2022/01/05 09:59:00;;;;;;;1.37;0.60;;;;;;;;;;5004233;28;20239;-60
2022/01/05 10:01:27;;;;;;;1.13;0.60;;;;;;;;;;5010149;28;20759;-60
2022/01/05 10:03:54;;;;;;;1.10;0.87;;;;;;;;;;4998598;28;20209;-60
2022/01/05 10:06:23;;;;;;;1.10;0.47;;;;;;;;;;5001824;28;20206;-60
2022/01/05 10:08:50;;;;;;;5.73;0.73;;;;;;;;;;5005606;28;20270;-63
2022/01/05 10:11:20;;;;;;;8.00;0.73;;;;;;;;;;5000690;28;20213;-60
2022/01/05 10:13:47;;;;;;;0.50;0.50;;;;;;;;;;5009567;28;20237;-60
2022/01/05 10:16:14;;;;;;;0.40;0.40;;;;;;;;;;4990327;28;20218;-60
2022/01/05 10:18:42;;;;;;;0.93;0.40;;;;;;;;;;4993714;28;20262;-60
2022/01/05 10:21:11;;;;;;;4.37;0.40;;;;;;;;;;5008771;28;20687;-60
2022/01/05 10:23:41;;;;;;;0.70;0.50;;;;;;;;;;5009993;28;20209;-60
2022/01/05 10:26:26;;;;;;;4.80;0.70;;;;;;;;;;5009360;28;20295;-60
2022/01/05 10:28:53;;;;;;;1.43;0.50;;;;;;;;;;5007292;28;20212;-60
2022/01/05 10:31:21;;;;;;;2.67;0.43;;;;;;;;;;5005119;28;20220;-60
2022/01/05 10:33:48;;;;;;;0.40;0.40;;;;;;;;;;5006208;28;20275;-60
2022/01/05 10:36:15;;;;;;;0.30;0.20;;;;;;;;;;5006697;28;20205;-60
2022/01/05 10:38:52;;;;;;;0.57;0.40;;;;;;;;;;5002988;28;20213;-59
2022/01/05 10:41:20;;;;;;;0.57;0.57;;;;;;;;;;5008448;28;20220;-60
2022/01/05 10:44:06;;;;;;;4.83;0.43;;;;;;;;;;5009440;28;20622;-59
2022/01/05 10:46:34;;;;;;;0.63;0.27;;;;;;;;;;5008918;28;20197;-60
2022/01/05 10:49:03;;;;;;;0.30;0.30;;;;;;;;;;5008498;28;20302;-60
2022/01/05 10:51:30;;;;;;;3.50;1.03;;;;;;;;;;5009051;28;20252;-60
2022/01/05 10:54:11;;;;;;;0.60;0.60;;;;;;;;;;5010189;28;20232;-60
2022/01/05 10:56:38;;;;;;;6.43;0.73;;;;;;;;;;5009223;28;20247;-60
2022/01/05 10:59:05;;;;;;;0.97;0.67;;;;;;;;;;5006613;28;20216;-60
2022/01/05 11:01:33;;;;;;;0.87;0.50;;;;;;;;;;5009950;28;20732;-59
2022/01/05 11:04:00;;;;;;;2.17;0.40;;;;;;;;;;5009602;28;20208;-60
2022/01/05 11:06:27;;;;;;;1.83;0.70;;;;;;;;;;5009936;28;20213;-59
2022/01/05 11:08:55;;;;;;;0.40;0.40;;;;;;;;;;5005979;28;20667;-60
2022/01/05 11:11:31;;;;;;;2.17;0.50;;;;;;;;;;5009900;28;20307;-59
2022/01/05 11:13:58;;;;;;;1.40;0.40;;;;;;;;;;5006723;28;20291;-59
2022/01/05 11:16:26;;;;;;;0.23;0.20;;;;;;;;;;5009861;28;20671;-59
2022/01/05 11:19:11;;;;;;;0.73;0.73;;;;;;;;;;5008997;28;20212;-60
2022/01/05 11:21:39;;;;;;;3.47;0.60;;;;;;;;;;4990346;28;20227;-59
2022/01/05 11:24:06;;;;;;;0.50;0.50;;;;;;;;;;5003942;28;20205;-60
2022/01/05 11:26:35;;;;;;;0.67;0.47;;;;;;;;;;5004108;28;20217;-60
2022/01/05 11:29:03;;;;;;;0.57;0.50;;;;;;;;;;5002705;28;20957;-60
2022/01/05 11:31:30;;;;;;;0.70;0.50;;;;;;;;;;5009135;28;20209;-60
2022/01/05 11:33:57;;;;;;;2.93;0.30;;;;;;;;;;5006612;28;20863;-60
2022/01/05 11:36:24;;;;;;;0.57;0.50;;;;;;;;;;4999803;28;20217;-60
2022/01/05 11:38:51;;;;;;;6.53;0.97;;;;;;;;;;5003892;28;20213;-60
2022/01/05 11:41:19;;;;;;;2.10;0.90;;;;;;;;;;5004848;28;20210;-60
2022/01/05 11:43:48;;;;;;;1.23;0.77;;;;;;;;;;5007583;28;20216;-59
2022/01/05 11:46:16;;;;;;;0.20;0.20;;;;;;;;;;5003907;28;20208;-60
2022/01/05 11:48:58;;;;;;;1.90;0.60;;;;;;;;;;4996915;28;20205;-59
2022/01/05 11:51:30;;;;;;;0.83;0.60;;;;;;;;;;5004175;28;20654;-60
2022/01/05 11:54:13;;;;;;;7.73;0.90;;;;;;;;;;4993257;28;20225;-60
2022/01/05 11:56:41;;;;;;;0.47;0.40;;;;;;;;;;5011549;28;20650;-60
2022/01/05 11:59:19;;;;;;;0.30;0.30;;;;;;;;;;5010577;28;20291;-60
2022/01/05 12:01:58;;;;;;;1.37;0.50;;;;;;;;;;5013212;28;20236;-60
2022/01/05 12:04:25;;;;;;;1.20;0.50;;;;;;;;;;5013209;28;20749;-60
2022/01/05 12:07:03;;;;;;;0.40;0.40;;;;;;;;;;4995062;28;20216;-60
2022/01/05 12:09:31;;;;;;;0.30;0.30;;;;;;;;;;5006268;28;20217;-60
2022/01/05 12:12:00;;;;;;;1.07;0.30;;;;;;;;;;5011576;28;20671;-60
2022/01/05 12:14:47;;;;;;;1.83;0.50;;;;;;;;;;5013049;28;20592;-60
2022/01/05 12:17:15;;;;;;;2.10;0.50;;;;;;;;;;4997250;28;20209;-60
2022/01/05 12:20:01;;;;;;;1.20;0.47;;;;;;;;;;5002049;28;20219;-59
2022/01/05 12:22:29;;;;;;;0.53;0.43;;;;;;;;;;4996724;28;20202;-60
2022/01/05 12:25:13;;;;;;;0.50;0.50;;;;;;;;;;5012877;28;20304;-60
2022/01/05 12:27:40;;;;;;;1.33;0.60;;;;;;;;;;5012497;28;20208;-60
2022/01/05 12:30:26;;;;;;;4.47;0.37;;;;;;;;;;4999487;28;20206;-60
2022/01/05 12:33:03;;;;;;;2.57;0.50;;;;;;;;;;4999859;28;20257;-60
2022/01/05 12:35:43;;;;;;;1.80;0.70;;;;;;;;;;5011994;28;20232;-60
2022/01/05 12:38:10;;;;;;;0.87;0.33;;;;;;;;;;5010826;28;20212;-60
2022/01/05 12:40:38;;;;;;;2.00;0.30;;;;;;;;;;5012386;28;20216;-60
2022/01/05 12:43:23;;;;;;;0.40;0.40;;;;;;;;;;5012077;28;20587;-60
2022/01/05 12:45:51;;;;;;;2.53;0.30;;;;;;;;;;5012106;28;20610;-60
2022/01/05 12:48:37;;;;;;;2.03;0.43;;;;;;;;;;5011994;28;20300;-59
2022/01/05 12:51:20;;;;;;;0.27;0.27;;;;;;;;;;5011879;28;20468;-60
2022/01/05 12:53:52;;;;;;;0.50;0.23;;;;;;;;;;4992430;28;20208;-60
2022/01/05 12:56:19;;;;;;;0.23;0.23;;;;;;;;;;4992980;28;20304;-59
2022/01/05 12:58:48;;;;;;;0.80;0.60;;;;;;;;;;5010868;28;20216;-59
2022/01/05 13:01:15;;;;;;;0.40;0.40;;;;;;;;;;5011632;28;20208;-59
2022/01/05 13:03:42;;;;;;;0.30;0.30;;;;;;;;;;5011546;28;20263;-59
2022/01/05 13:06:17;;;;;;;0.23;0.23;;;;;;;;;;5008332;28;20270;-60
2022/01/05 13:08:47;;;;;;;0.67;0.40;;;;;;;;;;5012207;28;20220;-60
2022/01/05 13:11:17;;;;;;;1.60;0.30;;;;;;;;;;5000405;28;20247;-60
2022/01/05 13:13:45;;;;;;;1.67;0.30;;;;;;;;;;5012056;28;20224;-60
2022/01/05 13:16:12;;;;;;;3.17;0.77;;;;;;;;;;5011610;28;20209;-59
2022/01/05 13:18:39;;;;;;;0.70;0.67;;;;;;;;;;5011943;28;20669;-59
2022/01/05 13:21:06;;;;;;;3.77;0.70;;;;;;;;;;5010598;28;20691;-60
2022/01/05 13:23:34;;;;;;;0.40;0.40;;;;;;;;;;5011910;28;20687;-60
2022/01/05 13:26:09;;;;;;;0.47;0.47;;;;;;;;;;5010235;28;20675;-60
2022/01/05 13:28:39;;;;;;;0.30;0.30;;;;;;;;;;5011148;28;20782;-60
2022/01/05 13:31:10;;;;;;;0.80;0.30;;;;;;;;;;5010560;28;20217;-60
2022/01/05 13:33:38;;;;;;;2.97;0.40;;;;;;;;;;5011304;28;20294;-61
2022/01/05 13:36:06;;;;;;;2.00;0.43;;;;;;;;;;5011216;28;20290;-60
2022/01/05 13:38:33;;;;;;;0.57;0.47;;;;;;;;;;5010954;28;20201;-60
2022/01/05 13:41:00;;;;;;;0.47;0.47;;;;;;;;;;5001347;28;20261;-60
2022/01/05 13:43:28;;;;;;;2.10;0.50;;;;;;;;;;4992011;28;20617;-60
2022/01/05 13:45:56;;;;;;;1.23;0.50;;;;;;;;;;5004505;28;20626;-60
2022/01/05 13:48:25;;;;;;;0.87;0.63;;;;;;;;;;5010866;28;20205;-60
2022/01/05 13:50:53;;;;;;;5.43;0.70;;;;;;;;;;5010005;28;20255;-60
2022/01/05 13:53:22;;;;;;;5.03;0.97;;;;;;;;;;5011094;28;20288;-60
2022/01/05 13:58:54;;;;;;;1.20;0.73;;;;;;;;;;4992704;28;20211;-60
2022/01/05 14:01:22;;;;;;;1.67;0.77;;;;;;;;;;5007825;28;20220;-60
2022/01/05 14:03:52;;;;;;;0.50;0.50;;;;;;;;;;5009351;28;20212;-60
2022/01/05 14:06:21;;;;;;;5.30;1.10;;;;;;;;;;4996562;28;20206;-60
2022/01/05 14:08:52;;;;;;;0.63;0.47;;;;;;;;;;4996369;28;20606;-60
2022/01/05 14:11:20;;;;;;;0.60;0.60;;;;;;;;;;4996948;28;20303;-60
2022/01/05 14:13:47;;;;;;;1.30;0.70;;;;;;;;;;4994184;28;20213;-60
2022/01/05 14:16:28;;;;;;;1.80;0.43;;;;;;;;;;5005426;28;20237;-60
2022/01/05 14:18:59;;;;;;;2.50;0.40;;;;;;;;;;4990192;28;20256;-60
2022/01/05 14:21:27;;;;;;;1.50;0.60;;;;;;;;;;5000650;28;20213;-60
2022/01/05 14:23:54;;;;;;;3.20;0.40;;;;;;;;;;5004316;28;20208;-60
2022/01/05 14:26:24;;;;;;;1.80;0.40;;;;;;;;;;4992156;28;20224;-60
2022/01/05 14:28:51;;;;;;;1.33;0.50;;;;;;;;;;5004229;28;20208;-60
2022/01/05 14:31:18;;;;;;;2.83;0.57;;;;;;;;;;5003762;28;20205;-60
2022/01/05 14:33:50;;;;;;;0.73;0.43;;;;;;;;;;5003644;28;20212;-60
2022/01/05 14:36:20;;;;;;;3.53;0.50;;;;;;;;;;5005853;28;20236;-60
2022/01/05 14:38:57;;;;;;;0.40;0.20;;;;;;;;;;5003504;28;20574;-60
2022/01/05 14:41:31;;;;;;;1.50;0.60;;;;;;;;;;4992141;28;20257;-60
2022/01/05 14:44:05;;;;;;;1.70;0.40;;;;;;;;;;4994834;28;20201;-60
2022/01/05 14:46:33;;;;;;;6.40;0.77;;;;;;;;;;5003545;28;20698;-60
2022/01/05 14:49:00;;;;;;;1.33;0.90;;;;;;;;;;4999556;28;20211;-60
2022/01/05 14:51:29;;;;;;;0.40;0.40;;;;;;;;;;4999294;28;20253;-61
2022/01/05 14:53:56;;;;;;;0.40;0.40;;;;;;;;;;5005998;28;20224;-60
2022/01/05 14:56:23;;;;;;;4.10;0.50;;;;;;;;;;5003163;28;20228;-60
2022/01/05 14:58:50;;;;;;;1.03;0.20;;;;;;;;;;5003990;28;20197;-60
2022/01/05 15:01:17;;;;;;;1.70;0.30;;;;;;;;;;4992536;28;20213;-60